DAAG/ALG METAR and TAF weather

Enter ICAO airport designator
Station Type Date Time Source
DAAG METAR 2020/09/19 01:30 UTC NOAA

DAAG 190130Z 18011KT 140V200 9999 FEW026TCU FEW030CB SCT080 26/16 Q1016


Station Type Date Time Source
DAAG Decoded METAR 2020/09/19 01:30 UTC NOAA

Dar-El-Beida, Algeria (DAAG) 36-43N 003-15E 25M
Sep 18, 2020 - 09:30 PM EDT / 2020.09.19 0130 UTC
Wind: from the S (180 degrees) at 13 MPH (11 KT) (direction variable):0
Visibility: greater than 7 mile(s):0
Sky conditions: partly cloudy
Weather: Cumulonimbus clouds, towering cumulus clouds observed
Temperature: 78 F (26 C)
Dew Point: 60 F (16 C)
Relative Humidity: 54%
Pressure (altimeter): 30.00 in. Hg (1016 hPa)
ob: DAAG 190130Z 18011KT 140V200 9999 FEW026TCU FEW030CB SCT080 26/16 Q1016
cycle: 1

Station Type Date Time Source
DAAG TAF 2020/09/19 00:00 UTC NOAA

TAF DAAG 182300Z 1900/1924 28008KT 9999 FEW026 SCT080
TEMPO 1900/1906 32015G25KT -TSRA FEW026TCU FEW030CB
BECMG 1907/1910 35012KT PROB30
TEMPO 1912/1916 5000 -TSRA FEW030CB

Example: see airport list